This is the latest recevied weather packets stored in our database for station/object KB3HLL. If no packets are shown the sender has not sent any weather packets the latest 1 day(s).
| Time | Temp. | Humidity | Pressure | Rain* | Wind** | Luminosity | Snow |
|---|---|---|---|---|---|---|---|
| 1777992979 | 20° C | 67% | 1011.3 hPa | 0 mm | 3.13 m/s, 185° | 345 W/m² | - |
| 1777992678 | 19.44° C | 70% | 1011.2 hPa | 0 mm | 2.68 m/s, 174° | 667 W/m² | - |
| 1777992381 | 18.89° C | 71% | 1011.3 hPa | 0 mm | 1.34 m/s, 189° | 751 W/m² | - |
| 1777992078 | 18.89° C | 72% | 1011.3 hPa | 0 mm | 1.79 m/s, 230° | 776 W/m² | - |
| 1777991780 | 18.33° C | 74% | 1011.4 hPa | 0 mm | 1.79 m/s, 202° | 771 W/m² | - |
| 1777991481 | 18.33° C | 74% | 1011.3 hPa | 0 mm | 1.34 m/s, 176° | 766 W/m² | - |
| 1777991180 | 17.78° C | 75% | 1011 hPa | 0 mm | 2.68 m/s, 204° | 673 W/m² | - |
| 1777990879 | 17.78° C | 74% | 1011.2 hPa | 0 mm | 3.58 m/s, 183° | 713 W/m² | - |
| 1777990578 | 17.78° C | 77% | 1011.3 hPa | 0 mm | 0.89 m/s, 132° | 655 W/m² | - |
| 1777990280 | 17.22° C | 77% | 1011.2 hPa | 0 mm | 1.34 m/s, 174° | 674 W/m² | - |
| 1777989980 | 17.22° C | 78% | 1011.3 hPa | 0 mm | 1.34 m/s, 182° | 686 W/m² | - |
| 1777989680 | 16.67° C | 79% | 1011.3 hPa | 0 mm | 1.79 m/s, 144° | 666 W/m² | - |
| 1777989380 | 16.67° C | 81% | 1011.3 hPa | 0 mm | 1.79 m/s, 182° | 647 W/m² | - |
| 1777989080 | 16.67° C | 78% | 1011.2 hPa | 0 mm | 2.68 m/s, 159° | 623 W/m² | - |
| 1777988780 | 16.67° C | 78% | 1011.3 hPa | 0 mm | 2.24 m/s, 168° | 608 W/m² | - |
| 1777988480 | 16.67° C | 79% | 1011.3 hPa | 0 mm | 1.34 m/s, 193° | 586 W/m² | - |
| 1777988180 | 16.11° C | 83% | 1011.3 hPa | 0 mm | 1.34 m/s, 176° | 559 W/m² | - |
| 1777987880 | 16.11° C | 83% | 1011.4 hPa | 0 mm | 1.79 m/s, 137° | 556 W/m² | - |
| 1777987579 | 16.67° C | 81% | 1011.4 hPa | 0 mm | 1.79 m/s, 168° | 551 W/m² | - |
| 1777987280 | 16.67° C | 78% | 1011.4 hPa | 0.25 mm | 0.89 m/s, 219° | 528 W/m² | - |
| 1777986980 | 16.11° C | 79% | 1011.4 hPa | 0.51 mm | 1.79 m/s, 194° | 501 W/m² | - |
| 1777986680 | 15.56° C | 84% | 1011.7 hPa | 0.51 mm | 2.68 m/s, 183° | 491 W/m² | - |
| 1777986378 | 16.11° C | 85% | 1011.4 hPa | 1.02 mm | 2.24 m/s, 177° | 452 W/m² | - |
| 1777986080 | 16.67° C | 86% | 1011.6 hPa | 1.52 mm | 1.34 m/s, 185° | 425 W/m² | - |
| 1777985779 | 17.22° C | 74% | 1011.3 hPa | 1.52 mm | 1.34 m/s, 231° | 397 W/m² | - |
* Rain latest hour (hover to see other rain measurements)
** Current wind speed in m/s (hover to see current wind gust speed)